sensor_id;sensor_type;location;lat;lon;timestamp;temperature;humidity
2130;DHT22;1071;52.544;13.374;2023-12-20T00:01:57;10.20;99.90
2130;DHT22;1071;52.544;13.374;2023-12-20T00:04:24;10.20;99.90
2130;DHT22;1071;52.544;13.374;2023-12-20T00:06:51;10.20;99.90
2130;DHT22;1071;52.544;13.374;2023-12-20T00:09:18;10.30;99.90
2130;DHT22;1071;52.544;13.374;2023-12-20T00:11:46;10.30;99.90
2130;DHT22;1071;52.544;13.374;2023-12-20T00:14:13;10.20;99.90
2130;DHT22;1071;52.544;13.374;2023-12-20T00:16:40;10.20;99.90
2130;DHT22;1071;52.544;13.374;2023-12-20T00:19:09;10.20;99.90
2130;DHT22;1071;52.544;13.374;2023-12-20T00:21:36;10.20;99.90
2130;DHT22;1071;52.544;13.374;2023-12-20T00:24:04;10.20;99.90
2130;DHT22;1071;52.544;13.374;2023-12-20T00:26:31;10.20;99.90
2130;DHT22;1071;52.544;13.374;2023-12-20T00:29:01;10.20;99.90
2130;DHT22;1071;52.544;13.374;2023-12-20T00:31:28;10.20;99.90
2130;DHT22;1071;52.544;13.374;2023-12-20T00:33:55;10.20;99.90
2130;DHT22;1071;52.544;13.374;2023-12-20T00:36:23;10.20;99.90
2130;DHT22;1071;52.544;13.374;2023-12-20T00:38:50;10.10;99.90
2130;DHT22;1071;52.544;13.374;2023-12-20T00:41:17;10.10;99.90
2130;DHT22;1071;52.544;13.374;2023-12-20T00:43:44;10.10;99.90
2130;DHT22;1071;52.544;13.374;2023-12-20T00:46:11;10.10;99.90
2130;DHT22;1071;52.544;13.374;2023-12-20T00:48:38;10.10;99.90
2130;DHT22;1071;52.544;13.374;2023-12-20T00:51:07;10.10;99.90
2130;DHT22;1071;52.544;13.374;2023-12-20T00:53:36;10.10;99.90
2130;DHT22;1071;52.544;13.374;2023-12-20T00:56:03;10.10;99.90
2130;DHT22;1071;52.544;13.374;2023-12-20T00:58:30;10.10;99.90
2130;DHT22;1071;52.544;13.374;2023-12-20T01:00:57;10.10;99.90
2130;DHT22;1071;52.544;13.374;2023-12-20T01:03:24;10.10;99.90
2130;DHT22;1071;52.544;13.374;2023-12-20T01:05:51;10.10;99.90
2130;DHT22;1071;52.544;13.374;2023-12-20T01:08:18;10.00;99.90
2130;DHT22;1071;52.544;13.374;2023-12-20T01:10:47;10.00;99.90
2130;DHT22;1071;52.544;13.374;2023-12-20T01:13:14;10.00;99.90
2130;DHT22;1071;52.544;13.374;2023-12-20T01:15:41;10.00;99.90
2130;DHT22;1071;52.544;13.374;2023-12-20T01:18:08;10.00;99.90
2130;DHT22;1071;52.544;13.374;2023-12-20T01:20:35;10.10;99.90
2130;DHT22;1071;52.544;13.374;2023-12-20T01:23:02;10.10;99.90
2130;DHT22;1071;52.544;13.374;2023-12-20T01:25:29;10.10;99.90
2130;DHT22;1071;52.544;13.374;2023-12-20T01:27:57;10.10;99.90
2130;DHT22;1071;52.544;13.374;2023-12-20T01:30:24;10.10;99.90
2130;DHT22;1071;52.544;13.374;2023-12-20T01:32:51;10.10;99.90
2130;DHT22;1071;52.544;13.374;2023-12-20T01:35:19;10.10;99.90
2130;DHT22;1071;52.544;13.374;2023-12-20T01:37:46;10.20;99.90
2130;DHT22;1071;52.544;13.374;2023-12-20T01:40:13;10.10;99.90
2130;DHT22;1071;52.544;13.374;2023-12-20T01:42:41;10.10;99.90
2130;DHT22;1071;52.544;13.374;2023-12-20T01:45:10;10.10;99.90
2130;DHT22;1071;52.544;13.374;2023-12-20T01:47:40;10.10;99.90
2130;DHT22;1071;52.544;13.374;2023-12-20T01:50:08;10.10;99.90
2130;DHT22;1071;52.544;13.374;2023-12-20T01:52:35;10.10;99.90
2130;DHT22;1071;52.544;13.374;2023-12-20T01:55:03;10.00;99.90
2130;DHT22;1071;52.544;13.374;2023-12-20T01:57:38;10.10;99.90
2130;DHT22;1071;52.544;13.374;2023-12-20T02:00:11;10.10;99.90
2130;DHT22;1071;52.544;13.374;2023-12-20T02:02:40;10.00;99.90
2130;DHT22;1071;52.544;13.374;2023-12-20T02:05:07;10.00;99.90
2130;DHT22;1071;52.544;13.374;2023-12-20T02:07:41;10.00;99.90
2130;DHT22;1071;52.544;13.374;2023-12-20T02:10:08;10.00;99.90
2130;DHT22;1071;52.544;13.374;2023-12-20T02:12:35;10.00;99.90
2130;DHT22;1071;52.544;13.374;2023-12-20T02:15:04;10.00;99.90
2130;DHT22;1071;52.544;13.374;2023-12-20T02:17:34;9.90;99.90
2130;DHT22;1071;52.544;13.374;2023-12-20T02:20:01;9.90;99.90
2130;DHT22;1071;52.544;13.374;2023-12-20T02:22:29;9.90;99.90
2130;DHT22;1071;52.544;13.374;2023-12-20T02:25:01;9.90;99.90
2130;DHT22;1071;52.544;13.374;2023-12-20T02:27:29;9.90;99.90
2130;DHT22;1071;52.544;13.374;2023-12-20T02:29:56;9.90;99.90
2130;DHT22;1071;52.544;13.374;2023-12-20T02:32:25;9.90;99.90
2130;DHT22;1071;52.544;13.374;2023-12-20T02:34:53;9.90;99.90
2130;DHT22;1071;52.544;13.374;2023-12-20T02:37:20;9.90;99.90
2130;DHT22;1071;52.544;13.374;2023-12-20T02:39:49;9.80;99.90
2130;DHT22;1071;52.544;13.374;2023-12-20T02:42:16;9.90;99.90
2130;DHT22;1071;52.544;13.374;2023-12-20T02:44:42;9.90;99.90
2130;DHT22;1071;52.544;13.374;2023-12-20T02:47:10;9.90;99.90
2130;DHT22;1071;52.544;13.374;2023-12-20T02:49:37;9.90;99.90
2130;DHT22;1071;52.544;13.374;2023-12-20T02:52:04;9.80;99.90
2130;DHT22;1071;52.544;13.374;2023-12-20T02:54:31;9.90;99.90
2130;DHT22;1071;52.544;13.374;2023-12-20T02:57:00;9.90;99.90
2130;DHT22;1071;52.544;13.374;2023-12-20T02:59:27;9.90;99.90
2130;DHT22;1071;52.544;13.374;2023-12-20T03:01:54;9.80;99.90
2130;DHT22;1071;52.544;13.374;2023-12-20T03:04:21;9.90;99.90
2130;DHT22;1071;52.544;13.374;2023-12-20T03:06:48;9.80;99.90
2130;DHT22;1071;52.544;13.374;2023-12-20T03:09:15;9.80;99.90
2130;DHT22;1071;52.544;13.374;2023-12-20T03:11:42;9.80;99.90
2130;DHT22;1071;52.544;13.374;2023-12-20T03:14:11;9.80;99.90
2130;DHT22;1071;52.544;13.374;2023-12-20T03:16:38;9.80;99.90
2130;DHT22;1071;52.544;13.374;2023-12-20T03:19:07;9.80;99.90
2130;DHT22;1071;52.544;13.374;2023-12-20T03:21:35;9.80;99.90
2130;DHT22;1071;52.544;13.374;2023-12-20T03:24:02;9.80;99.90
2130;DHT22;1071;52.544;13.374;2023-12-20T03:26:29;9.80;99.90
2130;DHT22;1071;52.544;13.374;2023-12-20T03:28:56;9.80;99.90
2130;DHT22;1071;52.544;13.374;2023-12-20T03:31:24;9.80;99.90
2130;DHT22;1071;52.544;13.374;2023-12-20T03:33:51;9.70;99.90
2130;DHT22;1071;52.544;13.374;2023-12-20T03:36:20;9.80;99.90
2130;DHT22;1071;52.544;13.374;2023-12-20T03:38:47;9.80;99.90
2130;DHT22;1071;52.544;13.374;2023-12-20T03:41:14;9.70;99.90
2130;DHT22;1071;52.544;13.374;2023-12-20T03:43:41;9.70;99.90
2130;DHT22;1071;52.544;13.374;2023-12-20T03:46:08;9.70;99.90
2130;DHT22;1071;52.544;13.374;2023-12-20T03:48:37;9.70;99.90
2130;DHT22;1071;52.544;13.374;2023-12-20T03:51:04;9.70;99.90
2130;DHT22;1071;52.544;13.374;2023-12-20T03:53:31;9.70;99.90
2130;DHT22;1071;52.544;13.374;2023-12-20T03:55:58;9.70;99.90
2130;DHT22;1071;52.544;13.374;2023-12-20T03:58:25;9.70;99.90
2130;DHT22;1071;52.544;13.374;2023-12-20T04:00:52;9.70;99.90
2130;DHT22;1071;52.544;13.374;2023-12-20T04:03:18;9.60;99.90
2130;DHT22;1071;52.544;13.374;2023-12-20T04:05:47;9.60;99.90
2130;DHT22;1071;52.544;13.374;2023-12-20T04:08:14;9.60;99.90
2130;DHT22;1071;52.544;13.374;2023-12-20T04:10:41;9.60;99.90
2130;DHT22;1071;52.544;13.374;2023-12-20T04:13:08;9.50;99.90
2130;DHT22;1071;52.544;13.374;2023-12-20T04:15:35;9.50;99.90
2130;DHT22;1071;52.544;13.374;2023-12-20T04:18:04;9.50;99.90
2130;DHT22;1071;52.544;13.374;2023-12-20T04:20:31;9.50;99.90
2130;DHT22;1071;52.544;13.374;2023-12-20T04:23:02;9.40;99.90
2130;DHT22;1071;52.544;13.374;2023-12-20T04:25:30;9.40;99.90
2130;DHT22;1071;52.544;13.374;2023-12-20T04:27:57;9.40;99.90
2130;DHT22;1071;52.544;13.374;2023-12-20T04:30:24;9.40;99.90
2130;DHT22;1071;52.544;13.374;2023-12-20T04:32:51;9.40;99.90
2130;DHT22;1071;52.544;13.374;2023-12-20T04:35:18;9.40;99.90
2130;DHT22;1071;52.544;13.374;2023-12-20T04:37:45;9.30;99.90
2130;DHT22;1071;52.544;13.374;2023-12-20T04:40:14;9.30;99.90
2130;DHT22;1071;52.544;13.374;2023-12-20T04:42:41;9.30;99.90
2130;DHT22;1071;52.544;13.374;2023-12-20T04:45:09;9.30;99.90
2130;DHT22;1071;52.544;13.374;2023-12-20T04:47:38;9.30;99.90
2130;DHT22;1071;52.544;13.374;2023-12-20T04:50:06;9.30;99.90
2130;DHT22;1071;52.544;13.374;2023-12-20T04:52:34;9.30;99.90
2130;DHT22;1071;52.544;13.374;2023-12-20T04:55:01;9.30;99.90
2130;DHT22;1071;52.544;13.374;2023-12-20T04:57:29;9.30;99.90
2130;DHT22;1071;52.544;13.374;2023-12-20T04:59:56;9.20;99.90
2130;DHT22;1071;52.544;13.374;2023-12-20T05:02:22;9.20;99.90
2130;DHT22;1071;52.544;13.374;2023-12-20T05:04:52;9.20;99.90
2130;DHT22;1071;52.544;13.374;2023-12-20T05:07:19;9.20;99.90
2130;DHT22;1071;52.544;13.374;2023-12-20T05:09:47;9.20;99.90
2130;DHT22;1071;52.544;13.374;2023-12-20T05:12:14;9.20;99.90
2130;DHT22;1071;52.544;13.374;2023-12-20T05:14:42;9.20;99.90
2130;DHT22;1071;52.544;13.374;2023-12-20T05:17:09;9.20;99.90
2130;DHT22;1071;52.544;13.374;2023-12-20T05:19:36;9.20;99.90
2130;DHT22;1071;52.544;13.374;2023-12-20T05:22:03;9.20;99.90
2130;DHT22;1071;52.544;13.374;2023-12-20T05:24:30;9.10;99.90
2130;DHT22;1071;52.544;13.374;2023-12-20T05:26:57;9.10;99.90
2130;DHT22;1071;52.544;13.374;2023-12-20T05:29:24;9.10;99.90
2130;DHT22;1071;52.544;13.374;2023-12-20T05:31:52;9.10;99.90
2130;DHT22;1071;52.544;13.374;2023-12-20T05:34:25;9.10;99.90
2130;DHT22;1071;52.544;13.374;2023-12-20T05:36:52;9.10;99.90
2130;DHT22;1071;52.544;13.374;2023-12-20T05:39:19;9.10;99.90
2130;DHT22;1071;52.544;13.374;2023-12-20T05:41:46;9.00;99.90
2130;DHT22;1071;52.544;13.374;2023-12-20T05:44:13;9.00;99.90
2130;DHT22;1071;52.544;13.374;2023-12-20T05:46:40;9.00;99.90
2130;DHT22;1071;52.544;13.374;2023-12-20T05:49:09;9.00;99.90
2130;DHT22;1071;52.544;13.374;2023-12-20T05:51:36;9.00;99.90
2130;DHT22;1071;52.544;13.374;2023-12-20T05:54:03;9.00;99.90
2130;DHT22;1071;52.544;13.374;2023-12-20T05:56:30;8.90;99.90
2130;DHT22;1071;52.544;13.374;2023-12-20T05:58:57;8.90;99.90
2130;DHT22;1071;52.544;13.374;2023-12-20T06:01:24;8.90;99.90
2130;DHT22;1071;52.544;13.374;2023-12-20T06:03:51;8.90;99.90
2130;DHT22;1071;52.544;13.374;2023-12-20T06:06:19;8.90;99.90
2130;DHT22;1071;52.544;13.374;2023-12-20T06:08:46;8.90;99.90
2130;DHT22;1071;52.544;13.374;2023-12-20T06:11:13;8.90;99.90
2130;DHT22;1071;52.544;13.374;2023-12-20T06:13:40;8.90;99.90
2130;DHT22;1071;52.544;13.374;2023-12-20T06:16:07;8.80;99.90
2130;DHT22;1071;52.544;13.374;2023-12-20T06:18:37;8.80;99.90
2130;DHT22;1071;52.544;13.374;2023-12-20T06:21:04;8.90;99.90
2130;DHT22;1071;52.544;13.374;2023-12-20T06:23:34;8.80;99.90
2130;DHT22;1071;52.544;13.374;2023-12-20T06:26:01;8.80;99.90
2130;DHT22;1071;52.544;13.374;2023-12-20T06:28:29;8.80;99.90
2130;DHT22;1071;52.544;13.374;2023-12-20T06:30:58;8.80;99.90
2130;DHT22;1071;52.544;13.374;2023-12-20T06:33:26;8.80;99.90
2130;DHT22;1071;52.544;13.374;2023-12-20T06:35:53;8.80;99.90
2130;DHT22;1071;52.544;13.374;2023-12-20T06:38:20;8.80;99.90
2130;DHT22;1071;52.544;13.374;2023-12-20T06:40:49;8.80;99.90
2130;DHT22;1071;52.544;13.374;2023-12-20T06:43:16;8.80;99.90
2130;DHT22;1071;52.544;13.374;2023-12-20T06:45:43;8.80;99.90
2130;DHT22;1071;52.544;13.374;2023-12-20T06:48:09;8.70;99.90
2130;DHT22;1071;52.544;13.374;2023-12-20T06:50:39;8.70;99.90
2130;DHT22;1071;52.544;13.374;2023-12-20T06:53:06;8.70;99.90
2130;DHT22;1071;52.544;13.374;2023-12-20T06:55:34;8.70;99.90
2130;DHT22;1071;52.544;13.374;2023-12-20T06:58:48;8.70;99.90
2130;DHT22;1071;52.544;13.374;2023-12-20T07:01:28;8.70;99.90
2130;DHT22;1071;52.544;13.374;2023-12-20T07:03:55;8.70;99.90
2130;DHT22;1071;52.544;13.374;2023-12-20T07:06:22;8.60;99.90
2130;DHT22;1071;52.544;13.374;2023-12-20T07:08:52;8.50;99.90
2130;DHT22;1071;52.544;13.374;2023-12-20T07:11:30;8.60;99.90
2130;DHT22;1071;52.544;13.374;2023-12-20T07:13:58;8.60;99.90
2130;DHT22;1071;52.544;13.374;2023-12-20T07:16:26;8.60;99.90
2130;DHT22;1071;52.544;13.374;2023-12-20T07:18:54;8.60;99.90
2130;DHT22;1071;52.544;13.374;2023-12-20T07:21:51;8.60;99.90
2130;DHT22;1071;52.544;13.374;2023-12-20T07:24:33;8.60;99.90
2130;DHT22;1071;52.544;13.374;2023-12-20T07:27:00;8.70;99.90
2130;DHT22;1071;52.544;13.374;2023-12-20T07:29:29;8.70;99.90
2130;DHT22;1071;52.544;13.374;2023-12-20T07:31:56;8.70;99.90
2130;DHT22;1071;52.544;13.374;2023-12-20T07:34:23;8.70;99.90
2130;DHT22;1071;52.544;13.374;2023-12-20T07:36:49;8.70;99.90
2130;DHT22;1071;52.544;13.374;2023-12-20T07:39:16;8.70;99.90
2130;DHT22;1071;52.544;13.374;2023-12-20T07:42:09;8.70;99.90
2130;DHT22;1071;52.544;13.374;2023-12-20T07:44:37;8.60;99.90
2130;DHT22;1071;52.544;13.374;2023-12-20T07:50:22;8.60;99.90
2130;DHT22;1071;52.544;13.374;2023-12-20T07:52:49;8.60;99.90
2130;DHT22;1071;52.544;13.374;2023-12-20T07:55:16;8.60;99.90
2130;DHT22;1071;52.544;13.374;2023-12-20T07:57:43;8.60;99.90
2130;DHT22;1071;52.544;13.374;2023-12-20T08:00:21;8.60;99.90
2130;DHT22;1071;52.544;13.374;2023-12-20T08:02:52;8.60;99.90
2130;DHT22;1071;52.544;13.374;2023-12-20T08:05:21;8.60;99.90
2130;DHT22;1071;52.544;13.374;2023-12-20T08:07:51;8.60;99.90
2130;DHT22;1071;52.544;13.374;2023-12-20T08:10:19;8.60;99.90
2130;DHT22;1071;52.544;13.374;2023-12-20T08:12:46;8.60;99.90
2130;DHT22;1071;52.544;13.374;2023-12-20T08:15:15;8.60;99.90
2130;DHT22;1071;52.544;13.374;2023-12-20T08:17:41;8.60;99.90
2130;DHT22;1071;52.544;13.374;2023-12-20T08:20:09;8.70;99.90
2130;DHT22;1071;52.544;13.374;2023-12-20T08:22:36;8.70;99.90
2130;DHT22;1071;52.544;13.374;2023-12-20T08:25:04;8.70;99.90
2130;DHT22;1071;52.544;13.374;2023-12-20T08:27:31;8.70;99.90
2130;DHT22;1071;52.544;13.374;2023-12-20T08:29:59;8.70;99.90
2130;DHT22;1071;52.544;13.374;2023-12-20T08:32:27;8.70;99.90
2130;DHT22;1071;52.544;13.374;2023-12-20T08:34:54;8.70;99.90
2130;DHT22;1071;52.544;13.374;2023-12-20T08:37:21;8.60;99.90
2130;DHT22;1071;52.544;13.374;2023-12-20T08:39:48;8.60;99.90
2130;DHT22;1071;52.544;13.374;2023-12-20T08:42:15;8.70;99.90
2130;DHT22;1071;52.544;13.374;2023-12-20T08:44:42;8.70;99.90
2130;DHT22;1071;52.544;13.374;2023-12-20T08:47:17;8.70;99.90
2130;DHT22;1071;52.544;13.374;2023-12-20T08:49:46;8.70;99.90
2130;DHT22;1071;52.544;13.374;2023-12-20T08:52:31;8.80;99.90
2130;DHT22;1071;52.544;13.374;2023-12-20T08:54:58;8.80;99.90
2130;DHT22;1071;52.544;13.374;2023-12-20T08:57:26;8.80;99.90
2130;DHT22;1071;52.544;13.374;2023-12-20T08:59:53;8.90;99.90
2130;DHT22;1071;52.544;13.374;2023-12-20T09:02:20;8.90;99.90
2130;DHT22;1071;52.544;13.374;2023-12-20T09:04:48;8.90;99.90
2130;DHT22;1071;52.544;13.374;2023-12-20T09:07:22;8.90;99.90
2130;DHT22;1071;52.544;13.374;2023-12-20T09:09:49;8.90;99.90
2130;DHT22;1071;52.544;13.374;2023-12-20T09:12:17;9.00;99.90
2130;DHT22;1071;52.544;13.374;2023-12-20T09:14:45;9.00;99.90
2130;DHT22;1071;52.544;13.374;2023-12-20T09:17:14;9.10;99.90
2130;DHT22;1071;52.544;13.374;2023-12-20T09:26:07;9.10;99.90
2130;DHT22;1071;52.544;13.374;2023-12-20T09:31:41;9.20;99.90
2130;DHT22;1071;52.544;13.374;2023-12-20T09:34:11;9.20;99.90
2130;DHT22;1071;52.544;13.374;2023-12-20T09:36:38;9.20;99.90
2130;DHT22;1071;52.544;13.374;2023-12-20T09:39:12;9.20;99.90
2130;DHT22;1071;52.544;13.374;2023-12-20T09:41:43;9.20;99.90
2130;DHT22;1071;52.544;13.374;2023-12-20T09:44:18;9.20;99.90
2130;DHT22;1071;52.544;13.374;2023-12-20T09:46:49;9.30;99.90
2130;DHT22;1071;52.544;13.374;2023-12-20T09:49:18;9.30;99.90
2130;DHT22;1071;52.544;13.374;2023-12-20T09:51:46;9.30;99.90
2130;DHT22;1071;52.544;13.374;2023-12-20T09:54:14;9.30;99.90
2130;DHT22;1071;52.544;13.374;2023-12-20T09:56:43;9.20;99.90
2130;DHT22;1071;52.544;13.374;2023-12-20T09:59:11;9.20;99.90
2130;DHT22;1071;52.544;13.374;2023-12-20T10:01:41;9.20;99.90
2130;DHT22;1071;52.544;13.374;2023-12-20T10:04:10;9.20;99.90
2130;DHT22;1071;52.544;13.374;2023-12-20T10:06:55;9.30;99.90
2130;DHT22;1071;52.544;13.374;2023-12-20T10:09:24;9.30;99.90
2130;DHT22;1071;52.544;13.374;2023-12-20T10:12:13;9.30;99.90
2130;DHT22;1071;52.544;13.374;2023-12-20T10:14:43;9.30;99.90
2130;DHT22;1071;52.544;13.374;2023-12-20T10:17:10;9.40;99.90
2130;DHT22;1071;52.544;13.374;2023-12-20T10:19:38;9.40;99.90
2130;DHT22;1071;52.544;13.374;2023-12-20T10:22:05;9.30;99.90
2130;DHT22;1071;52.544;13.374;2023-12-20T10:24:32;9.30;99.90
2130;DHT22;1071;52.544;13.374;2023-12-20T10:27:05;9.40;99.90
2130;DHT22;1071;52.544;13.374;2023-12-20T10:29:34;9.40;99.90
2130;DHT22;1071;52.544;13.374;2023-12-20T10:32:22;9.40;99.90
2130;DHT22;1071;52.544;13.374;2023-12-20T10:34:59;9.40;99.90
2130;DHT22;1071;52.544;13.374;2023-12-20T10:37:26;9.50;99.90
2130;DHT22;1071;52.544;13.374;2023-12-20T10:39:54;9.50;99.90
2130;DHT22;1071;52.544;13.374;2023-12-20T10:42:27;9.50;99.90
2130;DHT22;1071;52.544;13.374;2023-12-20T10:45:13;9.50;99.90
2130;DHT22;1071;52.544;13.374;2023-12-20T10:47:44;9.50;99.90
2130;DHT22;1071;52.544;13.374;2023-12-20T10:53:06;9.50;99.90
2130;DHT22;1071;52.544;13.374;2023-12-20T10:55:33;9.40;99.90
2130;DHT22;1071;52.544;13.374;2023-12-20T10:58:02;9.40;99.90
2130;DHT22;1071;52.544;13.374;2023-12-20T11:00:33;9.40;99.90
2130;DHT22;1071;52.544;13.374;2023-12-20T11:03:09;9.50;99.90
2130;DHT22;1071;52.544;13.374;2023-12-20T11:05:41;9.50;99.90
2130;DHT22;1071;52.544;13.374;2023-12-20T11:08:14;9.50;99.90
2130;DHT22;1071;52.544;13.374;2023-12-20T11:10:51;9.60;99.90
2130;DHT22;1071;52.544;13.374;2023-12-20T11:13:26;9.50;99.90
2130;DHT22;1071;52.544;13.374;2023-12-20T11:15:55;9.60;99.90
2130;DHT22;1071;52.544;13.374;2023-12-20T11:18:28;9.60;99.90
2130;DHT22;1071;52.544;13.374;2023-12-20T11:21:01;9.60;99.90
2130;DHT22;1071;52.544;13.374;2023-12-20T11:23:29;9.50;99.90
2130;DHT22;1071;52.544;13.374;2023-12-20T11:26:04;9.60;99.90
2130;DHT22;1071;52.544;13.374;2023-12-20T11:28:31;9.50;99.90
2130;DHT22;1071;52.544;13.374;2023-12-20T11:31:04;9.50;99.90
2130;DHT22;1071;52.544;13.374;2023-12-20T11:33:36;9.50;99.90
2130;DHT22;1071;52.544;13.374;2023-12-20T11:36:06;9.40;99.90
2130;DHT22;1071;52.544;13.374;2023-12-20T11:38:40;9.40;99.90
2130;DHT22;1071;52.544;13.374;2023-12-20T11:41:17;9.40;99.90
2130;DHT22;1071;52.544;13.374;2023-12-20T11:43:44;9.40;99.90
2130;DHT22;1071;52.544;13.374;2023-12-20T11:46:13;9.40;99.90
2130;DHT22;1071;52.544;13.374;2023-12-20T11:48:43;9.40;99.90
2130;DHT22;1071;52.544;13.374;2023-12-20T11:51:12;9.40;99.90
2130;DHT22;1071;52.544;13.374;2023-12-20T11:53:39;9.40;99.90
2130;DHT22;1071;52.544;13.374;2023-12-20T11:56:08;9.40;99.90
2130;DHT22;1071;52.544;13.374;2023-12-20T11:58:38;9.40;99.90
2130;DHT22;1071;52.544;13.374;2023-12-20T12:01:09;9.40;99.90
2130;DHT22;1071;52.544;13.374;2023-12-20T12:04:05;9.40;99.90
2130;DHT22;1071;52.544;13.374;2023-12-20T12:06:38;9.40;99.90
2130;DHT22;1071;52.544;13.374;2023-12-20T12:09:05;9.40;99.90
2130;DHT22;1071;52.544;13.374;2023-12-20T12:11:33;9.40;99.90
2130;DHT22;1071;52.544;13.374;2023-12-20T12:14:00;9.40;99.90
2130;DHT22;1071;52.544;13.374;2023-12-20T12:16:27;9.30;99.90
2130;DHT22;1071;52.544;13.374;2023-12-20T12:18:56;9.30;99.90
2130;DHT22;1071;52.544;13.374;2023-12-20T12:21:24;9.30;99.90
2130;DHT22;1071;52.544;13.374;2023-12-20T12:23:52;9.30;99.90
2130;DHT22;1071;52.544;13.374;2023-12-20T12:26:19;9.30;99.90
2130;DHT22;1071;52.544;13.374;2023-12-20T12:28:46;9.30;99.90
2130;DHT22;1071;52.544;13.374;2023-12-20T12:31:15;9.30;99.90
2130;DHT22;1071;52.544;13.374;2023-12-20T12:33:42;9.30;99.90
2130;DHT22;1071;52.544;13.374;2023-12-20T12:36:10;9.30;99.90
2130;DHT22;1071;52.544;13.374;2023-12-20T12:38:42;9.40;99.90
2130;DHT22;1071;52.544;13.374;2023-12-20T12:41:12;9.30;99.90
2130;DHT22;1071;52.544;13.374;2023-12-20T12:43:40;9.30;99.90
2130;DHT22;1071;52.544;13.374;2023-12-20T12:46:08;9.30;99.90
2130;DHT22;1071;52.544;13.374;2023-12-20T12:48:35;9.30;99.90
2130;DHT22;1071;52.544;13.374;2023-12-20T12:51:02;9.30;99.90
2130;DHT22;1071;52.544;13.374;2023-12-20T12:53:29;9.20;99.90
2130;DHT22;1071;52.544;13.374;2023-12-20T12:56:01;9.10;99.90
2130;DHT22;1071;52.544;13.374;2023-12-20T12:58:28;9.20;99.90
2130;DHT22;1071;52.544;13.374;2023-12-20T13:00:55;9.20;99.90
2130;DHT22;1071;52.544;13.374;2023-12-20T13:03:22;9.20;99.90
2130;DHT22;1071;52.544;13.374;2023-12-20T13:05:51;9.20;99.90
2130;DHT22;1071;52.544;13.374;2023-12-20T13:08:18;9.20;99.90
2130;DHT22;1071;52.544;13.374;2023-12-20T13:10:46;9.10;99.90
2130;DHT22;1071;52.544;13.374;2023-12-20T13:13:17;9.10;99.90
2130;DHT22;1071;52.544;13.374;2023-12-20T13:15:50;9.20;99.90
2130;DHT22;1071;52.544;13.374;2023-12-20T13:18:22;9.20;99.90
2130;DHT22;1071;52.544;13.374;2023-12-20T13:20:50;9.20;99.90
2130;DHT22;1071;52.544;13.374;2023-12-20T13:23:20;9.10;99.90
2130;DHT22;1071;52.544;13.374;2023-12-20T13:25:50;9.00;99.90
2130;DHT22;1071;52.544;13.374;2023-12-20T13:28:22;9.00;99.90
2130;DHT22;1071;52.544;13.374;2023-12-20T13:30:49;8.90;99.90
2130;DHT22;1071;52.544;13.374;2023-12-20T13:33:19;8.80;99.90
2130;DHT22;1071;52.544;13.374;2023-12-20T13:35:47;8.80;99.90
2130;DHT22;1071;52.544;13.374;2023-12-20T13:38:14;8.80;99.90
2130;DHT22;1071;52.544;13.374;2023-12-20T13:40:41;8.80;99.90
2130;DHT22;1071;52.544;13.374;2023-12-20T13:43:08;8.80;99.90
2130;DHT22;1071;52.544;13.374;2023-12-20T13:45:41;8.80;99.90
2130;DHT22;1071;52.544;13.374;2023-12-20T13:48:08;8.80;99.90
2130;DHT22;1071;52.544;13.374;2023-12-20T13:50:35;8.90;99.90
2130;DHT22;1071;52.544;13.374;2023-12-20T13:53:03;8.80;99.90
2130;DHT22;1071;52.544;13.374;2023-12-20T13:55:33;8.80;99.90
2130;DHT22;1071;52.544;13.374;2023-12-20T13:58:00;8.80;99.90
2130;DHT22;1071;52.544;13.374;2023-12-20T14:00:27;8.90;99.90
2130;DHT22;1071;52.544;13.374;2023-12-20T14:02:55;8.80;99.90
2130;DHT22;1071;52.544;13.374;2023-12-20T14:05:25;8.80;99.90
2130;DHT22;1071;52.544;13.374;2023-12-20T14:07:55;8.80;99.90
2130;DHT22;1071;52.544;13.374;2023-12-20T14:10:26;8.80;99.90
2130;DHT22;1071;52.544;13.374;2023-12-20T14:12:54;8.80;99.90
2130;DHT22;1071;52.544;13.374;2023-12-20T14:15:36;8.80;99.90
2130;DHT22;1071;52.544;13.374;2023-12-20T14:18:09;8.80;99.90
2130;DHT22;1071;52.544;13.374;2023-12-20T14:20:37;8.80;99.90
2130;DHT22;1071;52.544;13.374;2023-12-20T14:23:05;8.70;99.90
2130;DHT22;1071;52.544;13.374;2023-12-20T14:25:40;8.60;99.90
2130;DHT22;1071;52.544;13.374;2023-12-20T14:28:07;8.60;99.90
2130;DHT22;1071;52.544;13.374;2023-12-20T14:30:41;8.60;99.90
2130;DHT22;1071;52.544;13.374;2023-12-20T14:33:10;8.60;99.90
2130;DHT22;1071;52.544;13.374;2023-12-20T14:35:36;8.70;99.90
2130;DHT22;1071;52.544;13.374;2023-12-20T14:38:04;8.60;99.90
2130;DHT22;1071;52.544;13.374;2023-12-20T14:40:31;8.60;99.90
2130;DHT22;1071;52.544;13.374;2023-12-20T14:42:58;8.60;99.90
2130;DHT22;1071;52.544;13.374;2023-12-20T14:45:26;8.60;99.90
2130;DHT22;1071;52.544;13.374;2023-12-20T14:47:56;8.60;99.90
2130;DHT22;1071;52.544;13.374;2023-12-20T14:50:25;8.60;99.90
2130;DHT22;1071;52.544;13.374;2023-12-20T14:52:54;8.60;99.90
2130;DHT22;1071;52.544;13.374;2023-12-20T14:55:22;8.60;99.90
2130;DHT22;1071;52.544;13.374;2023-12-20T14:58:01;8.60;99.90
2130;DHT22;1071;52.544;13.374;2023-12-20T15:00:29;8.60;99.90
2130;DHT22;1071;52.544;13.374;2023-12-20T15:03:02;8.60;99.90
2130;DHT22;1071;52.544;13.374;2023-12-20T15:05:31;8.60;99.90
2130;DHT22;1071;52.544;13.374;2023-12-20T15:07:58;8.60;99.90
2130;DHT22;1071;52.544;13.374;2023-12-20T15:10:26;8.60;99.90
2130;DHT22;1071;52.544;13.374;2023-12-20T15:12:55;8.60;99.90
2130;DHT22;1071;52.544;13.374;2023-12-20T15:15:22;8.60;99.90
2130;DHT22;1071;52.544;13.374;2023-12-20T15:17:52;8.60;99.90
2130;DHT22;1071;52.544;13.374;2023-12-20T15:20:19;8.70;99.90
2130;DHT22;1071;52.544;13.374;2023-12-20T15:22:48;8.60;99.90
2130;DHT22;1071;52.544;13.374;2023-12-20T15:25:15;8.60;99.90
2130;DHT22;1071;52.544;13.374;2023-12-20T15:27:47;8.60;99.90
2130;DHT22;1071;52.544;13.374;2023-12-20T15:30:18;8.70;99.90
2130;DHT22;1071;52.544;13.374;2023-12-20T15:32:45;8.70;99.90
2130;DHT22;1071;52.544;13.374;2023-12-20T15:35:12;8.70;99.90
2130;DHT22;1071;52.544;13.374;2023-12-20T15:37:39;8.60;99.90
2130;DHT22;1071;52.544;13.374;2023-12-20T15:40:10;8.60;99.90
2130;DHT22;1071;52.544;13.374;2023-12-20T15:42:38;8.50;99.90
2130;DHT22;1071;52.544;13.374;2023-12-20T15:45:07;8.50;99.90
2130;DHT22;1071;52.544;13.374;2023-12-20T15:47:34;8.50;99.90
2130;DHT22;1071;52.544;13.374;2023-12-20T15:50:05;8.50;99.90
2130;DHT22;1071;52.544;13.374;2023-12-20T15:52:33;8.50;99.90
2130;DHT22;1071;52.544;13.374;2023-12-20T15:55:02;8.50;99.90
2130;DHT22;1071;52.544;13.374;2023-12-20T15:57:31;8.50;99.90
2130;DHT22;1071;52.544;13.374;2023-12-20T15:59:59;8.40;99.90
2130;DHT22;1071;52.544;13.374;2023-12-20T16:02:26;8.40;99.90
2130;DHT22;1071;52.544;13.374;2023-12-20T16:04:53;8.40;99.90
2130;DHT22;1071;52.544;13.374;2023-12-20T16:07:20;8.40;99.90
2130;DHT22;1071;52.544;13.374;2023-12-20T16:09:47;8.40;99.90
2130;DHT22;1071;52.544;13.374;2023-12-20T16:12:14;8.30;99.90
2130;DHT22;1071;52.544;13.374;2023-12-20T16:14:43;8.40;99.90
2130;DHT22;1071;52.544;13.374;2023-12-20T16:17:10;8.30;99.90
2130;DHT22;1071;52.544;13.374;2023-12-20T16:19:37;8.40;99.90
2130;DHT22;1071;52.544;13.374;2023-12-20T16:22:04;8.30;99.90
2130;DHT22;1071;52.544;13.374;2023-12-20T16:24:31;8.30;99.90
2130;DHT22;1071;52.544;13.374;2023-12-20T16:27:00;8.30;99.90